sensor_id;sensor_type;location;lat;lon;timestamp;P1;durP1;ratioP1;P2;durP2;ratioP2
6386;SDS011;3226;42.162;24.756;2024-01-15T00:00:52;40.53;;;24.10;;
6386;SDS011;3226;42.162;24.756;2024-01-15T00:03:20;44.57;;;24.00;;
6386;SDS011;3226;42.162;24.756;2024-01-15T00:05:48;46.20;;;24.33;;
6386;SDS011;3226;42.162;24.756;2024-01-15T00:08:16;45.97;;;22.80;;
6386;SDS011;3226;42.162;24.756;2024-01-15T00:10:44;43.37;;;22.83;;
6386;SDS011;3226;42.162;24.756;2024-01-15T00:13:12;41.57;;;23.47;;
6386;SDS011;3226;42.162;24.756;2024-01-15T00:15:42;45.33;;;23.93;;
6386;SDS011;3226;42.162;24.756;2024-01-15T00:18:10;44.77;;;23.83;;
6386;SDS011;3226;42.162;24.756;2024-01-15T00:20:38;40.83;;;21.33;;
6386;SDS011;3226;42.162;24.756;2024-01-15T00:23:06;39.97;;;22.77;;
6386;SDS011;3226;42.162;24.756;2024-01-15T00:25:34;39.70;;;22.33;;
6386;SDS011;3226;42.162;24.756;2024-01-15T00:28:02;44.83;;;22.93;;
6386;SDS011;3226;42.162;24.756;2024-01-15T00:30:31;44.57;;;23.37;;
6386;SDS011;3226;42.162;24.756;2024-01-15T00:33:00;41.63;;;23.30;;
6386;SDS011;3226;42.162;24.756;2024-01-15T00:35:28;46.10;;;22.37;;
6386;SDS011;3226;42.162;24.756;2024-01-15T00:37:57;44.63;;;23.07;;
6386;SDS011;3226;42.162;24.756;2024-01-15T00:40:25;48.87;;;23.97;;
6386;SDS011;3226;42.162;24.756;2024-01-15T00:42:53;41.70;;;21.50;;
6386;SDS011;3226;42.162;24.756;2024-01-15T00:45:21;44.13;;;23.40;;
6386;SDS011;3226;42.162;24.756;2024-01-15T00:47:49;47.53;;;23.47;;
6386;SDS011;3226;42.162;24.756;2024-01-15T00:50:18;43.77;;;23.80;;
6386;SDS011;3226;42.162;24.756;2024-01-15T00:52:46;45.67;;;23.20;;
6386;SDS011;3226;42.162;24.756;2024-01-15T00:55:14;44.53;;;22.23;;
6386;SDS011;3226;42.162;24.756;2024-01-15T00:57:42;45.17;;;23.07;;
6386;SDS011;3226;42.162;24.756;2024-01-15T01:00:11;45.13;;;23.20;;
6386;SDS011;3226;42.162;24.756;2024-01-15T01:02:40;46.17;;;23.70;;
6386;SDS011;3226;42.162;24.756;2024-01-15T01:05:08;50.70;;;24.33;;
6386;SDS011;3226;42.162;24.756;2024-01-15T01:07:37;44.83;;;23.30;;
6386;SDS011;3226;42.162;24.756;2024-01-15T01:10:05;44.93;;;22.30;;
6386;SDS011;3226;42.162;24.756;2024-01-15T01:12:34;45.37;;;23.10;;
6386;SDS011;3226;42.162;24.756;2024-01-15T01:15:02;50.57;;;24.53;;
6386;SDS011;3226;42.162;24.756;2024-01-15T01:17:31;43.20;;;23.77;;
6386;SDS011;3226;42.162;24.756;2024-01-15T01:19:59;43.47;;;24.03;;
6386;SDS011;3226;42.162;24.756;2024-01-15T01:22:30;47.43;;;24.60;;
6386;SDS011;3226;42.162;24.756;2024-01-15T01:25:00;45.07;;;23.60;;
6386;SDS011;3226;42.162;24.756;2024-01-15T01:27:28;52.33;;;26.87;;
6386;SDS011;3226;42.162;24.756;2024-01-15T01:29:56;48.03;;;24.07;;
6386;SDS011;3226;42.162;24.756;2024-01-15T01:32:24;44.03;;;24.30;;
6386;SDS011;3226;42.162;24.756;2024-01-15T01:34:52;45.83;;;24.27;;
6386;SDS011;3226;42.162;24.756;2024-01-15T01:37:20;52.97;;;25.93;;
6386;SDS011;3226;42.162;24.756;2024-01-15T01:39:48;48.17;;;24.63;;
6386;SDS011;3226;42.162;24.756;2024-01-15T01:42:18;50.97;;;24.33;;
6386;SDS011;3226;42.162;24.756;2024-01-15T01:44:46;49.53;;;24.70;;
6386;SDS011;3226;42.162;24.756;2024-01-15T01:47:14;47.60;;;22.40;;
6386;SDS011;3226;42.162;24.756;2024-01-15T01:49:42;44.40;;;21.77;;
6386;SDS011;3226;42.162;24.756;2024-01-15T01:52:10;45.33;;;22.03;;
6386;SDS011;3226;42.162;24.756;2024-01-15T01:54:38;45.53;;;22.50;;
6386;SDS011;3226;42.162;24.756;2024-01-15T01:57:08;42.13;;;22.87;;
6386;SDS011;3226;42.162;24.756;2024-01-15T01:59:39;40.67;;;21.80;;
6386;SDS011;3226;42.162;24.756;2024-01-15T02:02:08;38.40;;;20.07;;
6386;SDS011;3226;42.162;24.756;2024-01-15T02:04:36;44.80;;;21.77;;
6386;SDS011;3226;42.162;24.756;2024-01-15T02:07:05;41.83;;;21.93;;
6386;SDS011;3226;42.162;24.756;2024-01-15T02:09:33;42.87;;;22.80;;
6386;SDS011;3226;42.162;24.756;2024-01-15T02:12:01;45.03;;;21.47;;
6386;SDS011;3226;42.162;24.756;2024-01-15T02:14:29;43.97;;;21.63;;
6386;SDS011;3226;42.162;24.756;2024-01-15T02:16:59;42.80;;;21.50;;
6386;SDS011;3226;42.162;24.756;2024-01-15T02:19:27;40.47;;;21.00;;
6386;SDS011;3226;42.162;24.756;2024-01-15T02:21:55;42.53;;;22.43;;
6386;SDS011;3226;42.162;24.756;2024-01-15T02:24:24;43.07;;;21.10;;
6386;SDS011;3226;42.162;24.756;2024-01-15T02:26:52;34.10;;;20.33;;
6386;SDS011;3226;42.162;24.756;2024-01-15T02:29:20;42.00;;;21.13;;
6386;SDS011;3226;42.162;24.756;2024-01-15T02:31:48;41.50;;;21.97;;
6386;SDS011;3226;42.162;24.756;2024-01-15T02:34:16;42.87;;;23.07;;
6386;SDS011;3226;42.162;24.756;2024-01-15T02:36:45;40.77;;;21.80;;
6386;SDS011;3226;42.162;24.756;2024-01-15T02:39:13;40.60;;;22.47;;
6386;SDS011;3226;42.162;24.756;2024-01-15T02:41:42;41.60;;;22.20;;
6386;SDS011;3226;42.162;24.756;2024-01-15T02:44:10;39.57;;;23.50;;
6386;SDS011;3226;42.162;24.756;2024-01-15T02:46:38;41.87;;;23.23;;
6386;SDS011;3226;42.162;24.756;2024-01-15T02:49:06;39.70;;;21.27;;
6386;SDS011;3226;42.162;24.756;2024-01-15T02:51:34;49.37;;;22.47;;
6386;SDS011;3226;42.162;24.756;2024-01-15T02:54:02;41.53;;;22.50;;
6386;SDS011;3226;42.162;24.756;2024-01-15T02:56:30;48.70;;;22.53;;
6386;SDS011;3226;42.162;24.756;2024-01-15T02:59:00;41.40;;;21.10;;
6386;SDS011;3226;42.162;24.756;2024-01-15T03:01:28;41.23;;;23.17;;
6386;SDS011;3226;42.162;24.756;2024-01-15T03:03:55;44.43;;;23.27;;
6386;SDS011;3226;42.162;24.756;2024-01-15T03:06:24;43.93;;;23.30;;
6386;SDS011;3226;42.162;24.756;2024-01-15T03:08:52;45.33;;;24.43;;
6386;SDS011;3226;42.162;24.756;2024-01-15T03:11:20;45.87;;;23.63;;
6386;SDS011;3226;42.162;24.756;2024-01-15T03:13:48;44.20;;;23.90;;
6386;SDS011;3226;42.162;24.756;2024-01-15T03:16:17;45.40;;;23.23;;
6386;SDS011;3226;42.162;24.756;2024-01-15T03:18:46;45.97;;;23.70;;
6386;SDS011;3226;42.162;24.756;2024-01-15T03:21:14;49.30;;;22.77;;
6386;SDS011;3226;42.162;24.756;2024-01-15T03:23:42;45.40;;;23.90;;
6386;SDS011;3226;42.162;24.756;2024-01-15T03:26:10;42.80;;;23.43;;
6386;SDS011;3226;42.162;24.756;2024-01-15T03:28:38;44.53;;;24.23;;
6386;SDS011;3226;42.162;24.756;2024-01-15T03:31:07;46.23;;;24.47;;
6386;SDS011;3226;42.162;24.756;2024-01-15T03:33:36;44.57;;;25.20;;
6386;SDS011;3226;42.162;24.756;2024-01-15T03:36:05;49.27;;;24.07;;
6386;SDS011;3226;42.162;24.756;2024-01-15T03:38:34;49.77;;;25.23;;
6386;SDS011;3226;42.162;24.756;2024-01-15T03:41:02;48.67;;;24.97;;
6386;SDS011;3226;42.162;24.756;2024-01-15T03:43:30;52.70;;;27.43;;
6386;SDS011;3226;42.162;24.756;2024-01-15T03:45:58;47.43;;;24.20;;
6386;SDS011;3226;42.162;24.756;2024-01-15T03:48:26;57.47;;;26.50;;
6386;SDS011;3226;42.162;24.756;2024-01-15T03:50:55;47.90;;;24.57;;
6386;SDS011;3226;42.162;24.756;2024-01-15T03:53:23;50.03;;;25.23;;
6386;SDS011;3226;42.162;24.756;2024-01-15T03:55:51;51.97;;;26.33;;
6386;SDS011;3226;42.162;24.756;2024-01-15T03:58:19;45.83;;;25.50;;
6386;SDS011;3226;42.162;24.756;2024-01-15T04:00:47;45.10;;;23.53;;
6386;SDS011;3226;42.162;24.756;2024-01-15T04:03:15;49.17;;;24.97;;
6386;SDS011;3226;42.162;24.756;2024-01-15T04:05:44;42.30;;;21.97;;
6386;SDS011;3226;42.162;24.756;2024-01-15T04:08:13;49.87;;;23.77;;
6386;SDS011;3226;42.162;24.756;2024-01-15T04:10:41;49.63;;;23.50;;
6386;SDS011;3226;42.162;24.756;2024-01-15T04:13:09;53.77;;;24.93;;
6386;SDS011;3226;42.162;24.756;2024-01-15T04:15:37;56.77;;;24.17;;
6386;SDS011;3226;42.162;24.756;2024-01-15T04:18:05;56.00;;;26.47;;
6386;SDS011;3226;42.162;24.756;2024-01-15T04:20:33;62.30;;;28.00;;
6386;SDS011;3226;42.162;24.756;2024-01-15T04:23:01;57.73;;;28.13;;
6386;SDS011;3226;42.162;24.756;2024-01-15T04:25:31;46.90;;;23.50;;
6386;SDS011;3226;42.162;24.756;2024-01-15T04:27:59;51.13;;;26.20;;
6386;SDS011;3226;42.162;24.756;2024-01-15T04:30:28;56.17;;;29.37;;
6386;SDS011;3226;42.162;24.756;2024-01-15T04:32:56;53.17;;;25.17;;
6386;SDS011;3226;42.162;24.756;2024-01-15T04:35:24;46.07;;;23.17;;
6386;SDS011;3226;42.162;24.756;2024-01-15T04:37:52;43.97;;;22.30;;
6386;SDS011;3226;42.162;24.756;2024-01-15T04:40:20;64.03;;;28.40;;
6386;SDS011;3226;42.162;24.756;2024-01-15T04:42:49;53.47;;;26.63;;
6386;SDS011;3226;42.162;24.756;2024-01-15T04:45:17;59.57;;;29.67;;
6386;SDS011;3226;42.162;24.756;2024-01-15T04:47:46;53.60;;;25.70;;
6386;SDS011;3226;42.162;24.756;2024-01-15T04:50:14;57.43;;;27.37;;
6386;SDS011;3226;42.162;24.756;2024-01-15T04:52:42;53.77;;;25.23;;
6386;SDS011;3226;42.162;24.756;2024-01-15T04:55:10;54.57;;;24.87;;
6386;SDS011;3226;42.162;24.756;2024-01-15T04:57:38;53.40;;;25.47;;
6386;SDS011;3226;42.162;24.756;2024-01-15T05:00:08;53.03;;;25.47;;
6386;SDS011;3226;42.162;24.756;2024-01-15T05:02:37;48.70;;;25.03;;
6386;SDS011;3226;42.162;24.756;2024-01-15T05:05:05;50.53;;;25.93;;
6386;SDS011;3226;42.162;24.756;2024-01-15T05:07:33;51.90;;;27.13;;
6386;SDS011;3226;42.162;24.756;2024-01-15T05:10:01;49.20;;;24.67;;
6386;SDS011;3226;42.162;24.756;2024-01-15T05:12:30;59.50;;;27.90;;
6386;SDS011;3226;42.162;24.756;2024-01-15T05:14:58;65.67;;;27.73;;
6386;SDS011;3226;42.162;24.756;2024-01-15T05:17:27;56.53;;;28.07;;
6386;SDS011;3226;42.162;24.756;2024-01-15T05:19:55;48.60;;;26.60;;
6386;SDS011;3226;42.162;24.756;2024-01-15T05:22:24;56.57;;;26.50;;
6386;SDS011;3226;42.162;24.756;2024-01-15T05:24:52;51.90;;;27.60;;
6386;SDS011;3226;42.162;24.756;2024-01-15T05:27:20;63.07;;;28.10;;
6386;SDS011;3226;42.162;24.756;2024-01-15T05:29:48;67.60;;;30.10;;
6386;SDS011;3226;42.162;24.756;2024-01-15T05:32:16;59.07;;;30.43;;
6386;SDS011;3226;42.162;24.756;2024-01-15T05:34:45;63.87;;;31.03;;
6386;SDS011;3226;42.162;24.756;2024-01-15T05:37:14;69.80;;;32.93;;
6386;SDS011;3226;42.162;24.756;2024-01-15T05:39:41;65.60;;;31.70;;
6386;SDS011;3226;42.162;24.756;2024-01-15T05:42:10;64.97;;;32.67;;
6386;SDS011;3226;42.162;24.756;2024-01-15T05:44:38;55.33;;;30.50;;
6386;SDS011;3226;42.162;24.756;2024-01-15T05:47:06;52.80;;;26.60;;
6386;SDS011;3226;42.162;24.756;2024-01-15T05:49:34;51.13;;;26.80;;
6386;SDS011;3226;42.162;24.756;2024-01-15T05:52:04;56.33;;;27.23;;
6386;SDS011;3226;42.162;24.756;2024-01-15T05:54:32;63.23;;;30.87;;
6386;SDS011;3226;42.162;24.756;2024-01-15T05:57:00;61.53;;;29.40;;
6386;SDS011;3226;42.162;24.756;2024-01-15T05:59:28;67.03;;;31.07;;
6386;SDS011;3226;42.162;24.756;2024-01-15T06:01:58;62.17;;;31.17;;
6386;SDS011;3226;42.162;24.756;2024-01-15T06:04:27;60.77;;;30.20;;
6386;SDS011;3226;42.162;24.756;2024-01-15T06:06:55;59.50;;;31.80;;
6386;SDS011;3226;42.162;24.756;2024-01-15T06:09:24;56.13;;;30.57;;
6386;SDS011;3226;42.162;24.756;2024-01-15T06:11:52;54.93;;;29.23;;
6386;SDS011;3226;42.162;24.756;2024-01-15T06:14:20;51.40;;;29.43;;
6386;SDS011;3226;42.162;24.756;2024-01-15T06:16:48;55.77;;;29.07;;
6386;SDS011;3226;42.162;24.756;2024-01-15T06:19:16;57.20;;;30.00;;
6386;SDS011;3226;42.162;24.756;2024-01-15T06:21:44;56.63;;;29.63;;
6386;SDS011;3226;42.162;24.756;2024-01-15T06:24:13;64.27;;;29.47;;
6386;SDS011;3226;42.162;24.756;2024-01-15T06:26:43;53.50;;;27.37;;
6386;SDS011;3226;42.162;24.756;2024-01-15T06:29:11;60.57;;;30.17;;
6386;SDS011;3226;42.162;24.756;2024-01-15T06:31:39;49.83;;;26.13;;
6386;SDS011;3226;42.162;24.756;2024-01-15T06:34:07;48.87;;;26.47;;
6386;SDS011;3226;42.162;24.756;2024-01-15T06:36:35;59.73;;;45.70;;
6386;SDS011;3226;42.162;24.756;2024-01-15T06:39:04;51.93;;;31.40;;
6386;SDS011;3226;42.162;24.756;2024-01-15T06:41:32;66.63;;;31.43;;
6386;SDS011;3226;42.162;24.756;2024-01-15T06:44:01;61.93;;;29.03;;
6386;SDS011;3226;42.162;24.756;2024-01-15T06:46:29;64.70;;;30.40;;
6386;SDS011;3226;42.162;24.756;2024-01-15T06:48:57;56.90;;;30.57;;
6386;SDS011;3226;42.162;24.756;2024-01-15T06:51:25;59.97;;;31.33;;
6386;SDS011;3226;42.162;24.756;2024-01-15T06:53:53;62.93;;;32.93;;
6386;SDS011;3226;42.162;24.756;2024-01-15T06:56:21;58.60;;;30.43;;
6386;SDS011;3226;42.162;24.756;2024-01-15T06:58:49;58.17;;;29.10;;
6386;SDS011;3226;42.162;24.756;2024-01-15T07:01:18;69.77;;;31.20;;
6386;SDS011;3226;42.162;24.756;2024-01-15T07:03:47;61.87;;;29.33;;
6386;SDS011;3226;42.162;24.756;2024-01-15T07:06:15;64.17;;;30.73;;
6386;SDS011;3226;42.162;24.756;2024-01-15T07:08:43;56.03;;;29.10;;
6386;SDS011;3226;42.162;24.756;2024-01-15T07:11:11;57.00;;;32.07;;
6386;SDS011;3226;42.162;24.756;2024-01-15T07:13:39;48.00;;;24.93;;
6386;SDS011;3226;42.162;24.756;2024-01-15T07:16:07;46.70;;;23.63;;
6386;SDS011;3226;42.162;24.756;2024-01-15T07:18:36;51.90;;;23.83;;
6386;SDS011;3226;42.162;24.756;2024-01-15T07:21:05;45.10;;;22.63;;
6386;SDS011;3226;42.162;24.756;2024-01-15T07:23:33;40.80;;;22.77;;
6386;SDS011;3226;42.162;24.756;2024-01-15T07:26:01;45.80;;;22.47;;
6386;SDS011;3226;42.162;24.756;2024-01-15T07:28:29;42.70;;;22.80;;
6386;SDS011;3226;42.162;24.756;2024-01-15T07:30:57;50.13;;;24.00;;
6386;SDS011;3226;42.162;24.756;2024-01-15T07:33:25;40.63;;;21.67;;
6386;SDS011;3226;42.162;24.756;2024-01-15T07:35:55;45.47;;;22.13;;
6386;SDS011;3226;42.162;24.756;2024-01-15T07:38:27;44.13;;;22.73;;
6386;SDS011;3226;42.162;24.756;2024-01-15T07:40:55;44.60;;;23.93;;
6386;SDS011;3226;42.162;24.756;2024-01-15T07:43:23;44.53;;;22.63;;
6386;SDS011;3226;42.162;24.756;2024-01-15T07:45:51;39.93;;;22.20;;
6386;SDS011;3226;42.162;24.756;2024-01-15T07:48:19;45.00;;;24.23;;
6386;SDS011;3226;42.162;24.756;2024-01-15T07:50:48;43.20;;;23.47;;
6386;SDS011;3226;42.162;24.756;2024-01-15T07:53:17;44.03;;;23.33;;
6386;SDS011;3226;42.162;24.756;2024-01-15T07:55:45;41.30;;;23.50;;
6386;SDS011;3226;42.162;24.756;2024-01-15T07:58:13;47.80;;;26.93;;
6386;SDS011;3226;42.162;24.756;2024-01-15T08:00:42;45.63;;;24.03;;
6386;SDS011;3226;42.162;24.756;2024-01-15T08:03:11;39.97;;;22.77;;
6386;SDS011;3226;42.162;24.756;2024-01-15T08:05:39;56.00;;;24.30;;
6386;SDS011;3226;42.162;24.756;2024-01-15T08:08:07;46.63;;;22.77;;
6386;SDS011;3226;42.162;24.756;2024-01-15T08:10:37;48.07;;;24.13;;
6386;SDS011;3226;42.162;24.756;2024-01-15T08:13:05;52.40;;;25.90;;
6386;SDS011;3226;42.162;24.756;2024-01-15T08:15:35;55.70;;;28.27;;
6386;SDS011;3226;42.162;24.756;2024-01-15T08:18:04;48.17;;;26.67;;
6386;SDS011;3226;42.162;24.756;2024-01-15T08:20:32;53.90;;;26.70;;
6386;SDS011;3226;42.162;24.756;2024-01-15T08:23:01;49.30;;;26.77;;
6386;SDS011;3226;42.162;24.756;2024-01-15T08:25:29;49.40;;;25.60;;
6386;SDS011;3226;42.162;24.756;2024-01-15T08:27:58;50.83;;;27.70;;
6386;SDS011;3226;42.162;24.756;2024-01-15T08:30:26;59.87;;;28.97;;
6386;SDS011;3226;42.162;24.756;2024-01-15T08:32:55;65.03;;;29.73;;
6386;SDS011;3226;42.162;24.756;2024-01-15T08:35:33;59.63;;;35.50;;
6386;SDS011;3226;42.162;24.756;2024-01-15T08:38:01;44.77;;;25.67;;
6386;SDS011;3226;42.162;24.756;2024-01-15T08:40:30;49.63;;;26.37;;
6386;SDS011;3226;42.162;24.756;2024-01-15T08:42:59;43.23;;;22.17;;
6386;SDS011;3226;42.162;24.756;2024-01-15T08:45:28;42.90;;;22.57;;
6386;SDS011;3226;42.162;24.756;2024-01-15T08:47:58;49.93;;;37.83;;
6386;SDS011;3226;42.162;24.756;2024-01-15T08:50:26;41.07;;;21.80;;
6386;SDS011;3226;42.162;24.756;2024-01-15T08:52:54;50.27;;;24.93;;
6386;SDS011;3226;42.162;24.756;2024-01-15T08:55:22;43.70;;;21.73;;
6386;SDS011;3226;42.162;24.756;2024-01-15T08:57:50;35.07;;;21.50;;
6386;SDS011;3226;42.162;24.756;2024-01-15T09:00:20;42.90;;;27.33;;
6386;SDS011;3226;42.162;24.756;2024-01-15T09:02:48;43.13;;;23.57;;
6386;SDS011;3226;42.162;24.756;2024-01-15T09:05:16;44.73;;;23.13;;
6386;SDS011;3226;42.162;24.756;2024-01-15T09:07:44;46.27;;;23.80;;
6386;SDS011;3226;42.162;24.756;2024-01-15T09:10:13;39.63;;;22.33;;
6386;SDS011;3226;42.162;24.756;2024-01-15T09:12:41;39.93;;;21.90;;
6386;SDS011;3226;42.162;24.756;2024-01-15T09:15:09;41.47;;;22.77;;
6386;SDS011;3226;42.162;24.756;2024-01-15T09:17:39;42.10;;;22.40;;
6386;SDS011;3226;42.162;24.756;2024-01-15T09:20:07;42.83;;;25.37;;
6386;SDS011;3226;42.162;24.756;2024-01-15T09:22:37;38.27;;;21.77;;
6386;SDS011;3226;42.162;24.756;2024-01-15T09:25:07;38.43;;;22.20;;
6386;SDS011;3226;42.162;24.756;2024-01-15T09:27:36;42.80;;;23.97;;
6386;SDS011;3226;42.162;24.756;2024-01-15T09:30:05;42.13;;;24.17;;
6386;SDS011;3226;42.162;24.756;2024-01-15T09:32:35;53.00;;;24.03;;
6386;SDS011;3226;42.162;24.756;2024-01-15T09:35:05;52.20;;;22.80;;
6386;SDS011;3226;42.162;24.756;2024-01-15T09:37:34;53.10;;;28.47;;
6386;SDS011;3226;42.162;24.756;2024-01-15T09:40:13;41.97;;;24.57;;
6386;SDS011;3226;42.162;24.756;2024-01-15T09:42:43;44.50;;;25.17;;
6386;SDS011;3226;42.162;24.756;2024-01-15T09:45:12;44.23;;;23.83;;
6386;SDS011;3226;42.162;24.756;2024-01-15T09:47:41;57.03;;;31.27;;
6386;SDS011;3226;42.162;24.756;2024-01-15T09:50:13;50.63;;;25.57;;
6386;SDS011;3226;42.162;24.756;2024-01-15T09:52:43;56.37;;;26.87;;
6386;SDS011;3226;42.162;24.756;2024-01-15T09:55:12;56.27;;;29.13;;
6386;SDS011;3226;42.162;24.756;2024-01-15T09:57:41;62.53;;;30.37;;
6386;SDS011;3226;42.162;24.756;2024-01-15T10:00:12;59.23;;;32.93;;
6386;SDS011;3226;42.162;24.756;2024-01-15T10:02:42;53.10;;;28.47;;
6386;SDS011;3226;42.162;24.756;2024-01-15T10:05:10;55.03;;;30.47;;
6386;SDS011;3226;42.162;24.756;2024-01-15T10:07:40;54.03;;;29.57;;
6386;SDS011;3226;42.162;24.756;2024-01-15T10:10:08;52.47;;;27.87;;
6386;SDS011;3226;42.162;24.756;2024-01-15T10:12:39;48.20;;;27.73;;
6386;SDS011;3226;42.162;24.756;2024-01-15T10:15:09;51.17;;;25.50;;
6386;SDS011;3226;42.162;24.756;2024-01-15T10:17:38;48.00;;;29.87;;
6386;SDS011;3226;42.162;24.756;2024-01-15T10:20:08;48.67;;;24.80;;
6386;SDS011;3226;42.162;24.756;2024-01-15T10:22:40;49.03;;;25.40;;
6386;SDS011;3226;42.162;24.756;2024-01-15T10:25:10;45.07;;;24.90;;
6386;SDS011;3226;42.162;24.756;2024-01-15T10:27:38;48.17;;;27.07;;
6386;SDS011;3226;42.162;24.756;2024-01-15T10:30:08;47.10;;;26.97;;
6386;SDS011;3226;42.162;24.756;2024-01-15T10:32:36;43.43;;;24.13;;
6386;SDS011;3226;42.162;24.756;2024-01-15T10:35:05;42.73;;;24.20;;
6386;SDS011;3226;42.162;24.756;2024-01-15T10:37:35;43.43;;;25.30;;
6386;SDS011;3226;42.162;24.756;2024-01-15T10:40:05;40.73;;;23.73;;
6386;SDS011;3226;42.162;24.756;2024-01-15T10:42:33;44.13;;;24.20;;
6386;SDS011;3226;42.162;24.756;2024-01-15T10:45:01;48.93;;;25.73;;
6386;SDS011;3226;42.162;24.756;2024-01-15T10:47:29;45.17;;;24.40;;
6386;SDS011;3226;42.162;24.756;2024-01-15T10:49:58;41.77;;;25.30;;
6386;SDS011;3226;42.162;24.756;2024-01-15T10:52:27;42.43;;;26.67;;
6386;SDS011;3226;42.162;24.756;2024-01-15T10:54:55;47.10;;;29.30;;
6386;SDS011;3226;42.162;24.756;2024-01-15T10:57:26;45.67;;;25.83;;
6386;SDS011;3226;42.162;24.756;2024-01-15T10:59:56;51.23;;;28.33;;
6386;SDS011;3226;42.162;24.756;2024-01-15T11:02:25;46.53;;;26.50;;
6386;SDS011;3226;42.162;24.756;2024-01-15T11:04:54;44.47;;;24.30;;
6386;SDS011;3226;42.162;24.756;2024-01-15T11:07:22;49.73;;;25.73;;
6386;SDS011;3226;42.162;24.756;2024-01-15T11:09:54;44.33;;;26.97;;
6386;SDS011;3226;42.162;24.756;2024-01-15T11:12:24;45.03;;;23.90;;
6386;SDS011;3226;42.162;24.756;2024-01-15T11:14:58;43.93;;;26.17;;
6386;SDS011;3226;42.162;24.756;2024-01-15T11:20:27;43.37;;;24.63;;
6386;SDS011;3226;42.162;24.756;2024-01-15T11:22:56;43.03;;;25.73;;
6386;SDS011;3226;42.162;24.756;2024-01-15T11:25:25;46.60;;;26.20;;
6386;SDS011;3226;42.162;24.756;2024-01-15T11:28:04;45.83;;;26.43;;
6386;SDS011;3226;42.162;24.756;2024-01-15T11:30:32;45.17;;;25.77;;
6386;SDS011;3226;42.162;24.756;2024-01-15T11:33:03;41.03;;;23.30;;
6386;SDS011;3226;42.162;24.756;2024-01-15T11:35:49;35.77;;;23.57;;
6386;SDS011;3226;42.162;24.756;2024-01-15T11:38:26;43.43;;;23.77;;
6386;SDS011;3226;42.162;24.756;2024-01-15T11:40:56;42.83;;;22.70;;
6386;SDS011;3226;42.162;24.756;2024-01-15T11:43:29;49.70;;;25.07;;
6386;SDS011;3226;42.162;24.756;2024-01-15T11:45:59;53.23;;;26.37;;
6386;SDS011;3226;42.162;24.756;2024-01-15T11:48:30;62.17;;;31.47;;
6386;SDS011;3226;42.162;24.756;2024-01-15T11:51:10;54.07;;;27.10;;
6386;SDS011;3226;42.162;24.756;2024-01-15T11:53:40;50.17;;;28.37;;
6386;SDS011;3226;42.162;24.756;2024-01-15T11:56:15;56.10;;;29.60;;
6386;SDS011;3226;42.162;24.756;2024-01-15T11:58:45;52.23;;;26.57;;
6386;SDS011;3226;42.162;24.756;2024-01-15T12:01:13;50.73;;;26.47;;
6386;SDS011;3226;42.162;24.756;2024-01-15T12:03:41;54.27;;;29.47;;
6386;SDS011;3226;42.162;24.756;2024-01-15T12:06:09;48.17;;;27.10;;
6386;SDS011;3226;42.162;24.756;2024-01-15T12:08:38;47.90;;;28.70;;
6386;SDS011;3226;42.162;24.756;2024-01-15T12:11:06;53.37;;;28.93;;
6386;SDS011;3226;42.162;24.756;2024-01-15T12:13:38;49.60;;;32.43;;
6386;SDS011;3226;42.162;24.756;2024-01-15T12:16:08;49.47;;;27.87;;
6386;SDS011;3226;42.162;24.756;2024-01-15T12:18:36;63.53;;;30.70;;
6386;SDS011;3226;42.162;24.756;2024-01-15T12:21:04;64.93;;;37.00;;
6386;SDS011;3226;42.162;24.756;2024-01-15T12:23:33;62.67;;;32.37;;
6386;SDS011;3226;42.162;24.756;2024-01-15T12:26:01;53.80;;;29.67;;
6386;SDS011;3226;42.162;24.756;2024-01-15T12:28:29;57.67;;;31.47;;
6386;SDS011;3226;42.162;24.756;2024-01-15T12:30:57;64.43;;;35.60;;
6386;SDS011;3226;42.162;24.756;2024-01-15T12:33:28;63.13;;;44.40;;
6386;SDS011;3226;42.162;24.756;2024-01-15T12:35:56;61.83;;;35.07;;
6386;SDS011;3226;42.162;24.756;2024-01-15T12:38:24;62.97;;;31.70;;
6386;SDS011;3226;42.162;24.756;2024-01-15T12:40:52;59.13;;;34.80;;
6386;SDS011;3226;42.162;24.756;2024-01-15T12:43:21;60.53;;;32.93;;
6386;SDS011;3226;42.162;24.756;2024-01-15T12:45:49;62.13;;;33.60;;
6386;SDS011;3226;42.162;24.756;2024-01-15T12:48:18;62.37;;;42.13;;
6386;SDS011;3226;42.162;24.756;2024-01-15T12:50:48;62.03;;;40.30;;
6386;SDS011;3226;42.162;24.756;2024-01-15T12:53:16;59.60;;;34.00;;
6386;SDS011;3226;42.162;24.756;2024-01-15T12:55:44;64.83;;;32.73;;
6386;SDS011;3226;42.162;24.756;2024-01-15T12:58:12;74.80;;;42.93;;
6386;SDS011;3226;42.162;24.756;2024-01-15T13:00:42;65.93;;;41.40;;
6386;SDS011;3226;42.162;24.756;2024-01-15T13:03:10;60.30;;;34.37;;
6386;SDS011;3226;42.162;24.756;2024-01-15T13:05:38;57.67;;;31.40;;
6386;SDS011;3226;42.162;24.756;2024-01-15T13:08:08;59.75;;;34.70;;
6386;SDS011;3226;42.162;24.756;2024-01-15T13:10:36;59.47;;;39.85;;
6386;SDS011;3226;42.162;24.756;2024-01-15T13:13:04;57.57;;;31.77;;
6386;SDS011;3226;42.162;24.756;2024-01-15T13:15:32;66.83;;;32.80;;
6386;SDS011;3226;42.162;24.756;2024-01-15T13:18:01;60.40;;;32.80;;
6386;SDS011;3226;42.162;24.756;2024-01-15T13:20:29;55.33;;;32.90;;
6386;SDS011;3226;42.162;24.756;2024-01-15T13:22:57;55.87;;;30.07;;
6386;SDS011;3226;42.162;24.756;2024-01-15T13:25:26;56.03;;;31.40;;
6386;SDS011;3226;42.162;24.756;2024-01-15T13:27:54;62.97;;;34.80;;
6386;SDS011;3226;42.162;24.756;2024-01-15T13:30:22;48.53;;;29.33;;
6386;SDS011;3226;42.162;24.756;2024-01-15T13:32:50;66.47;;;40.93;;
6386;SDS011;3226;42.162;24.756;2024-01-15T13:35:19;57.17;;;29.97;;
6386;SDS011;3226;42.162;24.756;2024-01-15T13:37:47;56.13;;;30.83;;
6386;SDS011;3226;42.162;24.756;2024-01-15T13:40:15;56.67;;;32.30;;
6386;SDS011;3226;42.162;24.756;2024-01-15T13:42:47;51.03;;;30.30;;
6386;SDS011;3226;42.162;24.756;2024-01-15T13:45:18;59.80;;;32.13;;
6386;SDS011;3226;42.162;24.756;2024-01-15T13:47:47;57.83;;;31.43;;
6386;SDS011;3226;42.162;24.756;2024-01-15T13:50:15;56.90;;;30.53;;
6386;SDS011;3226;42.162;24.756;2024-01-15T13:52:43;59.10;;;32.23;;
6386;SDS011;3226;42.162;24.756;2024-01-15T13:55:11;59.27;;;32.67;;
6386;SDS011;3226;42.162;24.756;2024-01-15T13:57:39;57.53;;;32.40;;
6386;SDS011;3226;42.162;24.756;2024-01-15T14:00:09;57.27;;;30.70;;
6386;SDS011;3226;42.162;24.756;2024-01-15T14:02:39;51.50;;;31.33;;
6386;SDS011;3226;42.162;24.756;2024-01-15T14:05:08;62.87;;;31.30;;
6386;SDS011;3226;42.162;24.756;2024-01-15T14:07:39;52.23;;;32.07;;
6386;SDS011;3226;42.162;24.756;2024-01-15T14:10:08;56.53;;;35.97;;
6386;SDS011;3226;42.162;24.756;2024-01-15T14:12:37;44.27;;;27.27;;
6386;SDS011;3226;42.162;24.756;2024-01-15T14:15:06;76.33;;;46.93;;
6386;SDS011;3226;42.162;24.756;2024-01-15T14:17:36;48.27;;;31.50;;
6386;SDS011;3226;42.162;24.756;2024-01-15T14:20:05;50.13;;;34.30;;
6386;SDS011;3226;42.162;24.756;2024-01-15T14:22:36;46.40;;;25.63;;
6386;SDS011;3226;42.162;24.756;2024-01-15T14:25:04;40.97;;;25.80;;
6386;SDS011;3226;42.162;24.756;2024-01-15T14:27:32;47.17;;;32.93;;
6386;SDS011;3226;42.162;24.756;2024-01-15T14:30:01;44.93;;;32.20;;
6386;SDS011;3226;42.162;24.756;2024-01-15T14:32:29;42.00;;;24.97;;
6386;SDS011;3226;42.162;24.756;2024-01-15T14:34:59;42.27;;;24.07;;
6386;SDS011;3226;42.162;24.756;2024-01-15T14:37:28;45.13;;;27.80;;
6386;SDS011;3226;42.162;24.756;2024-01-15T14:39:56;46.70;;;25.13;;
6386;SDS011;3226;42.162;24.756;2024-01-15T14:42:25;46.23;;;28.20;;
6386;SDS011;3226;42.162;24.756;2024-01-15T14:44:56;50.17;;;28.37;;